createdAt,value
2023-03-06T00:01:49.017Z,74.33
2023-03-06T00:04:51.469Z,74.53
2023-03-06T00:07:53.767Z,74.78
2023-03-06T00:10:56.716Z,74.11
2023-03-06T00:13:58.934Z,74.26
2023-03-06T00:17:01.190Z,73.70
2023-03-06T00:20:05.919Z,73.74
2023-03-06T00:23:09.007Z,73.80
2023-03-06T00:26:11.317Z,73.95
2023-03-06T00:29:15.734Z,74.98
2023-03-06T00:32:20.423Z,77.81
2023-03-06T00:35:22.774Z,79.65
2023-03-06T00:38:27.614Z,78.29
2023-03-06T00:41:31.733Z,78.24
2023-03-06T00:44:34.163Z,77.84
2023-03-06T00:47:37.917Z,77.25
2023-03-06T00:50:40.155Z,79.45
2023-03-06T00:53:42.402Z,80.35
2023-03-06T00:56:44.597Z,82.82
2023-03-06T00:59:46.940Z,83.49
2023-03-06T01:02:49.140Z,81.23
2023-03-06T01:05:51.374Z,81.75
2023-03-06T01:08:53.632Z,81.89
2023-03-06T01:11:56.461Z,83.70
2023-03-06T01:14:58.659Z,80.83
2023-03-06T01:18:01.053Z,79.69
2023-03-06T01:21:04.505Z,78.65
2023-03-06T01:24:07.018Z,79.49
2023-03-06T01:27:09.286Z,78.28
2023-03-06T01:30:12.647Z,78.17
2023-03-06T01:33:15.011Z,78.35
2023-03-06T01:36:17.682Z,78.09
2023-03-06T01:39:20.770Z,81.36
2023-03-06T01:42:23.059Z,81.75
2023-03-06T01:45:25.241Z,84.20
2023-03-06T01:48:27.599Z,87.31
2023-03-06T01:51:35.151Z,87.14
2023-03-06T01:54:57.755Z,86.45
2023-03-06T01:58:05.892Z,86.45
2023-03-06T02:01:08.170Z,86.83
2023-03-06T02:04:11.060Z,86.88
2023-03-06T02:07:16.704Z,87.50
2023-03-06T02:10:20.167Z,88.65
2023-03-06T02:13:22.506Z,89.49
2023-03-06T02:16:30.700Z,89.44
2023-03-06T02:19:50.137Z,88.81
2023-03-06T02:23:18.355Z,88.86
2023-03-06T02:26:22.144Z,89.39
2023-03-06T02:29:27.380Z,89.01
2023-03-06T02:32:31.903Z,89.18
2023-03-06T02:35:36.189Z,89.23
2023-03-06T02:38:46.676Z,89.56
2023-03-06T02:41:49.135Z,91.40
2023-03-06T02:44:54.276Z,93.77
2023-03-06T02:47:56.511Z,93.72
2023-03-06T02:50:58.834Z,93.91
2023-03-06T02:54:01.780Z,92.58
2023-03-06T02:57:04.254Z,92.54
2023-03-06T03:00:11.576Z,90.55
2023-03-06T03:03:14.042Z,89.39
2023-03-06T03:06:16.347Z,88.22
2023-03-06T03:09:19.540Z,86.37
2023-03-06T03:12:22.516Z,85.48
2023-03-06T03:15:25.793Z,84.37
2023-03-06T03:18:28.753Z,84.71
2023-03-06T03:21:31.191Z,85.73
2023-03-06T03:24:33.485Z,85.12
2023-03-06T03:27:36.215Z,84.22
2023-03-06T03:30:40.666Z,85.44
2023-03-06T03:33:44.049Z,85.31
2023-03-06T03:36:47.612Z,84.99
2023-03-06T03:39:51.499Z,84.02
2023-03-06T03:42:53.828Z,84.19
2023-03-06T03:45:56.186Z,83.92
2023-03-06T03:48:58.936Z,84.79
2023-03-06T03:52:01.840Z,85.93
2023-03-06T03:55:11.527Z,86.19
2023-03-06T03:58:15.756Z,86.30
2023-03-06T04:01:18.246Z,85.92
2023-03-06T04:04:20.552Z,86.22
2023-03-06T04:07:22.809Z,86.16
2023-03-06T04:10:25.446Z,86.91
2023-03-06T04:13:27.976Z,87.20
2023-03-06T04:16:30.524Z,86.64
2023-03-06T04:19:32.985Z,85.80
2023-03-06T04:22:36.427Z,85.56
2023-03-06T04:25:39.010Z,87.51
2023-03-06T04:28:44.097Z,87.76
2023-03-06T04:31:46.396Z,84.93
2023-03-06T04:34:48.945Z,83.42
2023-03-06T04:37:51.153Z,83.07
2023-03-06T04:40:55.935Z,83.36
2023-03-06T04:43:58.325Z,82.69
2023-03-06T04:47:00.584Z,82.35
2023-03-06T04:50:04.025Z,81.70
2023-03-06T04:53:06.326Z,81.69
2023-03-06T04:56:08.847Z,81.65
2023-03-06T04:59:11.108Z,80.90
2023-03-06T05:02:13.344Z,81.17
2023-03-06T05:05:16.862Z,80.57
2023-03-06T05:08:19.119Z,80.38
2023-03-06T05:11:21.492Z,80.78
2023-03-06T05:14:23.688Z,80.32
2023-03-06T05:17:25.907Z,80.45
2023-03-06T05:20:31.177Z,80.90
2023-03-06T05:23:36.314Z,80.64
2023-03-06T05:26:38.542Z,80.70
2023-03-06T05:29:40.833Z,81.71
2023-03-06T05:32:43.296Z,80.57
2023-03-06T05:35:48.656Z,80.85
2023-03-06T05:38:50.926Z,81.06
2023-03-06T05:41:53.123Z,81.38
2023-03-06T05:44:55.304Z,81.17
2023-03-06T05:47:57.529Z,81.22
2023-03-06T05:51:01.234Z,81.82
2023-03-06T05:54:03.438Z,81.95
2023-03-06T05:57:06.173Z,82.20
2023-03-06T06:00:09.666Z,81.71
2023-03-06T06:03:20.687Z,82.00
2023-03-06T06:06:22.970Z,82.06
2023-03-06T06:09:25.938Z,82.04
2023-03-06T06:12:28.441Z,82.18
2023-03-06T06:15:30.939Z,81.75
2023-03-06T06:18:33.368Z,81.77
2023-03-06T06:21:35.669Z,81.88
2023-03-06T06:24:38.333Z,81.92
2023-03-06T06:27:40.693Z,82.01
2023-03-06T06:30:44.159Z,82.21
2023-03-06T06:33:46.530Z,82.40
2023-03-06T06:36:50.981Z,82.15
2023-03-06T06:39:54.485Z,82.46
2023-03-06T06:42:56.901Z,82.23
2023-03-06T06:46:19.586Z,82.40
2023-03-06T06:49:21.713Z,82.32
2023-03-06T06:52:25.209Z,82.46
2023-03-06T06:55:27.661Z,82.63
2023-03-06T06:58:29.981Z,82.69
2023-03-06T07:01:32.710Z,82.97
2023-03-06T07:04:35.034Z,82.98
2023-03-06T07:07:38.289Z,82.87
2023-03-06T07:10:40.562Z,82.69
2023-03-06T07:13:43.066Z,82.78
2023-03-06T07:16:45.281Z,83.06
2023-03-06T07:19:48.336Z,82.37
2023-03-06T07:22:53.199Z,81.81
2023-03-06T07:25:55.837Z,81.49
2023-03-06T07:28:58.076Z,81.29
2023-03-06T07:32:00.664Z,81.49
2023-03-06T07:35:19.716Z,81.70
2023-03-06T07:38:22.840Z,82.02
2023-03-06T07:41:25.098Z,81.63
2023-03-06T07:44:27.819Z,81.55
2023-03-06T07:47:32.612Z,81.08
2023-03-06T07:50:35.162Z,80.93
2023-03-06T07:53:37.509Z,80.65
2023-03-06T07:56:42.366Z,80.07
2023-03-06T07:59:44.860Z,80.19
2023-03-06T08:02:49.549Z,80.24
2023-03-06T08:05:55.056Z,79.81
2023-03-06T08:08:58.042Z,78.56
2023-03-06T08:12:00.958Z,77.95
2023-03-06T08:15:03.560Z,77.44
2023-03-06T08:18:08.290Z,77.60
2023-03-06T08:21:15.764Z,77.66
2023-03-06T08:24:22.493Z,78.12
2023-03-06T08:27:27.756Z,77.96
2023-03-06T08:30:30.373Z,78.59
2023-03-06T08:33:32.849Z,79.02
2023-03-06T08:36:35.677Z,78.33
2023-03-06T08:39:40.061Z,77.37
2023-03-06T08:42:44.847Z,77.43
2023-03-06T08:45:55.183Z,75.86
2023-03-06T08:48:58.149Z,75.88
2023-03-06T08:52:07.690Z,75.06
2023-03-06T08:55:10.314Z,75.19
2023-03-06T08:58:18.721Z,74.20
2023-03-06T09:01:40.146Z,73.69
2023-03-06T09:04:47.786Z,73.20
2023-03-06T09:07:52.360Z,72.46
2023-03-06T09:10:54.709Z,72.09
2023-03-06T09:13:57.753Z,70.90
2023-03-06T09:17:00.336Z,68.55
2023-03-06T09:20:03.272Z,66.56
2023-03-06T09:23:05.810Z,64.19
2023-03-06T09:26:08.711Z,62.83
2023-03-06T09:29:12.612Z,63.36
2023-03-06T09:32:15.157Z,62.92
2023-03-06T09:35:25.085Z,61.65
2023-03-06T09:38:28.329Z,60.56
2023-03-06T09:41:38.046Z,60.60
2023-03-06T09:44:44.186Z,59.25
2023-03-06T09:47:58.005Z,58.31
2023-03-06T09:51:16.422Z,55.24
2023-03-06T09:54:54.443Z,57.44
2023-03-06T09:58:26.210Z,58.07
2023-03-06T10:01:41.175Z,58.46
2023-03-06T10:04:53.442Z,56.82
2023-03-06T10:08:09.235Z,56.96
2023-03-06T10:11:14.902Z,57.22
2023-03-06T10:14:37.309Z,56.56
2023-03-06T10:17:42.058Z,54.57
2023-03-06T10:21:04.695Z,56.29
2023-03-06T10:24:37.225Z,57.42
2023-03-06T10:27:45.487Z,54.34
2023-03-06T10:30:59.769Z,54.65
2023-03-06T10:34:24.581Z,54.55
2023-03-06T10:37:31.612Z,55.76
2023-03-06T10:40:50.946Z,56.04
2023-03-06T10:44:05.411Z,55.21
2023-03-06T10:47:28.738Z,54.60
2023-03-06T10:50:32.305Z,53.57
2023-03-06T10:53:35.887Z,54.62
2023-03-06T10:56:48.598Z,54.65
2023-03-06T10:59:55.317Z,50.82
2023-03-06T11:03:18.595Z,48.03
2023-03-06T11:06:35.723Z,44.76
2023-03-06T11:09:38.433Z,44.57
2023-03-06T11:12:55.556Z,44.42
2023-03-06T11:16:01.813Z,48.37
2023-03-06T11:19:17.623Z,47.75
2023-03-06T11:22:22.785Z,45.75
2023-03-06T11:25:30.664Z,43.44
2023-03-06T11:28:38.465Z,40.50
2023-03-06T11:32:05.516Z,40.50
2023-03-06T11:35:15.893Z,44.15
2023-03-06T11:38:30.925Z,46.63
2023-03-06T11:41:59.378Z,48.95
2023-03-06T11:45:19.062Z,50.89
2023-03-06T11:48:35.747Z,49.98
2023-03-06T11:51:47.569Z,49.14
2023-03-06T11:54:56.887Z,49.61
2023-03-06T11:58:56.764Z,50.40
2023-03-06T12:02:29.180Z,51.28
2023-03-06T12:06:02.047Z,50.43
2023-03-06T12:09:13.124Z,51.77
2023-03-06T12:12:38.139Z,53.00
2023-03-06T12:16:03.222Z,52.46
2023-03-06T12:19:58.920Z,53.39
2023-03-06T12:23:29.707Z,54.21
2023-03-06T12:26:53.114Z,55.56
2023-03-06T12:30:24.410Z,54.90
2023-03-06T12:33:40.918Z,55.59
2023-03-06T12:37:04.897Z,56.08
2023-03-06T12:40:44.279Z,57.22
2023-03-06T12:44:04.375Z,58.33
2023-03-06T12:47:13.873Z,60.01
2023-03-06T12:50:31.492Z,62.55
2023-03-06T12:53:46.677Z,62.37
2023-03-06T12:56:50.694Z,62.81
2023-03-06T12:59:54.796Z,62.47
2023-03-06T13:03:29.426Z,63.85
2023-03-06T13:07:08.584Z,64.14
2023-03-06T13:10:32.177Z,63.80
2023-03-06T13:13:44.323Z,63.95
2023-03-06T13:16:46.607Z,63.84
2023-03-06T13:20:09.292Z,63.50
2023-03-06T13:23:51.366Z,64.39
2023-03-06T13:26:58.627Z,64.51
2023-03-06T13:30:07.735Z,65.24
2023-03-06T13:33:30.064Z,65.43
2023-03-06T13:36:34.349Z,65.41
2023-03-06T13:39:55.162Z,65.54
2023-03-06T13:43:12.356Z,66.62
2023-03-06T13:46:26.560Z,67.51
2023-03-06T13:49:29.836Z,68.51
2023-03-06T13:52:32.058Z,70.34
2023-03-06T13:55:42.828Z,71.76
2023-03-06T13:59:15.956Z,74.89
2023-03-06T14:02:36.716Z,76.90
2023-03-06T14:05:50.112Z,77.66
2023-03-06T14:08:52.854Z,78.42
2023-03-06T14:12:02.342Z,78.63
2023-03-06T14:15:16.726Z,78.09
2023-03-06T14:18:21.306Z,77.70
2023-03-06T14:21:30.985Z,77.25
2023-03-06T14:24:41.742Z,76.76
2023-03-06T14:27:49.647Z,75.17
2023-03-06T14:30:54.644Z,77.42
2023-03-06T14:33:59.589Z,78.03
2023-03-06T14:37:05.570Z,79.90
2023-03-06T14:40:11.474Z,79.54
2023-03-06T14:43:24.008Z,79.68
2023-03-06T14:46:26.269Z,79.44
2023-03-06T14:49:28.511Z,79.16
2023-03-06T14:52:31.035Z,78.44
2023-03-06T14:55:35.431Z,78.25
2023-03-06T14:58:58.138Z,77.64
2023-03-06T15:02:04.383Z,78.78
2023-03-06T15:05:19.494Z,82.59
2023-03-06T15:08:27.707Z,80.41
2023-03-06T15:11:53.164Z,81.34
2023-03-06T15:15:10.679Z,81.10
2023-03-06T15:18:28.813Z,81.62
2023-03-06T15:21:39.894Z,81.52
2023-03-06T15:24:42.209Z,81.32
2023-03-06T15:27:53.324Z,81.98
2023-03-06T15:31:10.662Z,82.82
2023-03-06T15:34:12.860Z,85.13
2023-03-06T15:37:29.004Z,85.86
2023-03-06T15:40:31.973Z,82.83
2023-03-06T15:43:39.676Z,83.23
2023-03-06T15:46:42.038Z,83.77
2023-03-06T15:49:44.458Z,83.65
2023-03-06T15:52:47.307Z,83.83
2023-03-06T15:55:51.719Z,84.22
2023-03-06T15:58:54.294Z,84.16
2023-03-06T16:01:56.603Z,84.19
2023-03-06T16:05:02.449Z,84.19
2023-03-06T16:08:05.419Z,84.09
2023-03-06T16:11:17.434Z,87.16
2023-03-06T16:14:23.866Z,87.43
2023-03-06T16:17:26.279Z,88.04
2023-03-06T16:20:29.329Z,88.13
2023-03-06T16:23:31.564Z,88.10
2023-03-06T16:26:35.171Z,88.54
2023-03-06T16:29:37.363Z,88.89
2023-03-06T16:32:39.685Z,88.55
2023-03-06T16:35:44.479Z,87.98
2023-03-06T16:38:48.130Z,87.44
2023-03-06T16:41:50.683Z,86.69
2023-03-06T16:44:52.941Z,86.40
2023-03-06T16:47:55.283Z,87.17
2023-03-06T16:50:57.520Z,87.16
2023-03-06T16:53:59.759Z,87.61
2023-03-06T16:57:01.997Z,88.15
2023-03-06T17:00:08.654Z,88.22
2023-03-06T17:03:10.890Z,86.21
2023-03-06T17:06:23.389Z,88.42
2023-03-06T17:09:25.623Z,89.61
2023-03-06T17:12:27.842Z,90.96
2023-03-06T17:15:30.171Z,90.71
2023-03-06T17:18:32.808Z,91.92
2023-03-06T17:21:35.550Z,91.21
2023-03-06T17:24:38.202Z,92.17
2023-03-06T17:27:40.380Z,91.56
2023-03-06T17:30:42.573Z,91.63
2023-03-06T17:33:45.261Z,89.73
2023-03-06T17:36:47.755Z,89.83
2023-03-06T17:39:50.545Z,90.27
2023-03-06T17:42:52.760Z,89.90
2023-03-06T17:45:55.042Z,90.00
2023-03-06T17:48:57.572Z,89.23
2023-03-06T17:52:00.993Z,90.11
2023-03-06T17:55:03.697Z,90.27
2023-03-06T17:58:05.973Z,90.31
2023-03-06T18:01:22.097Z,90.65
2023-03-06T18:04:24.755Z,90.28
2023-03-06T18:07:26.984Z,90.20
2023-03-06T18:10:29.251Z,90.14
2023-03-06T18:13:32.684Z,91.36
2023-03-06T18:16:34.992Z,91.83
2023-03-06T18:19:38.023Z,91.74
2023-03-06T18:22:40.405Z,91.71
2023-03-06T18:25:43.334Z,91.68
2023-03-06T18:28:47.911Z,91.53
2023-03-06T18:31:50.497Z,92.53
2023-03-06T18:34:52.833Z,93.43
2023-03-06T18:37:55.070Z,93.42
2023-03-06T18:40:57.334Z,93.28
2023-03-06T18:44:01.080Z,93.64
2023-03-06T18:47:04.127Z,93.52
2023-03-06T18:50:12.477Z,93.63
2023-03-06T18:53:14.675Z,94.53
2023-03-06T18:56:21.704Z,94.98
2023-03-06T18:59:23.976Z,95.06
2023-03-06T19:02:26.392Z,95.51
2023-03-06T19:05:28.623Z,96.03
2023-03-06T19:08:30.885Z,95.82
2023-03-06T19:11:34.169Z,94.85
2023-03-06T19:14:36.731Z,94.77
2023-03-06T19:17:38.988Z,95.04
2023-03-06T19:20:41.214Z,94.64
2023-03-06T19:23:43.420Z,94.72
2023-03-06T19:26:45.702Z,94.95
2023-03-06T19:29:47.879Z,94.25
2023-03-06T19:32:50.093Z,95.17
2023-03-06T19:35:52.406Z,94.48
2023-03-06T19:39:04.113Z,94.31
2023-03-06T19:42:06.765Z,93.74
2023-03-06T19:45:15.768Z,94.56
2023-03-06T19:48:18.029Z,94.42
2023-03-06T19:51:20.330Z,94.56
2023-03-06T19:54:24.756Z,94.93
2023-03-06T19:57:27.001Z,95.44
2023-03-06T20:00:29.735Z,96.03
2023-03-06T20:03:32.249Z,96.35
2023-03-06T20:06:36.714Z,96.67
2023-03-06T20:09:39.250Z,97.96
2023-03-06T20:12:41.691Z,98.66
2023-03-06T20:15:44.152Z,99.33
2023-03-06T20:18:46.484Z,99.10
2023-03-06T20:21:48.837Z,99.08
2023-03-06T20:24:51.115Z,99.28
2023-03-06T20:27:53.366Z,99.32
2023-03-06T20:30:55.577Z,98.98
2023-03-06T20:33:59.156Z,98.72
2023-03-06T20:37:01.378Z,97.91
2023-03-06T20:40:04.795Z,97.61
2023-03-06T20:43:07.870Z,97.81
2023-03-06T20:46:11.672Z,97.99
2023-03-06T20:49:14.713Z,98.34
2023-03-06T20:52:16.966Z,98.04
2023-03-06T20:55:19.225Z,97.91
2023-03-06T20:58:23.335Z,97.81
2023-03-06T21:01:31.351Z,97.23
2023-03-06T21:04:33.720Z,97.28
2023-03-06T21:07:40.432Z,96.86
2023-03-06T21:10:45.613Z,97.06
2023-03-06T21:13:47.876Z,97.10
2023-03-06T21:16:50.062Z,97.07
2023-03-06T21:19:52.893Z,97.67
2023-03-06T21:22:56.274Z,97.30
2023-03-06T21:25:58.649Z,97.29
2023-03-06T21:29:01.870Z,98.00
2023-03-06T21:32:04.456Z,97.69
2023-03-06T21:35:08.868Z,97.90
2023-03-06T21:38:11.919Z,97.92
2023-03-06T21:41:17.142Z,98.16
2023-03-06T21:44:19.765Z,98.17
2023-03-06T21:47:21.956Z,98.15
2023-03-06T21:50:24.812Z,97.84
2023-03-06T21:53:27.030Z,98.28
2023-03-06T21:56:29.393Z,98.92
2023-03-06T21:59:31.628Z,98.71
2023-03-06T22:02:34.115Z,98.48
2023-03-06T22:05:36.458Z,98.23
2023-03-06T22:08:39.328Z,97.97
2023-03-06T22:11:43.048Z,97.91
2023-03-06T22:14:45.257Z,97.97
2023-03-06T22:17:48.589Z,98.05
2023-03-06T22:20:52.147Z,98.03
2023-03-06T22:23:59.195Z,98.21
2023-03-06T22:27:01.515Z,97.92
2023-03-06T22:30:04.232Z,98.05
2023-03-06T22:33:06.445Z,97.71
2023-03-06T22:36:11.417Z,97.98
2023-03-06T22:39:14.767Z,98.01
2023-03-06T22:42:17.034Z,98.27
2023-03-06T22:45:19.316Z,98.30
2023-03-06T22:48:21.743Z,97.70
2023-03-06T22:51:23.954Z,97.70
2023-03-06T22:54:26.201Z,98.01
2023-03-06T22:57:29.999Z,98.07
2023-03-06T23:00:32.226Z,98.28
2023-03-06T23:03:36.871Z,98.21
2023-03-06T23:06:41.000Z,97.80
2023-03-06T23:09:43.247Z,97.66
2023-03-06T23:13:04.181Z,97.72
2023-03-06T23:16:25.256Z,97.74
2023-03-06T23:19:49.566Z,97.73
2023-03-06T23:23:11.029Z,97.54
2023-03-06T23:26:17.348Z,97.50
2023-03-06T23:29:19.553Z,97.75
2023-03-06T23:32:21.772Z,97.74
2023-03-06T23:35:24.005Z,97.69
2023-03-06T23:38:26.239Z,97.15
2023-03-06T23:41:28.661Z,97.34
2023-03-06T23:44:30.922Z,98.13
2023-03-06T23:47:33.942Z,98.13
2023-03-06T23:50:39.687Z,98.20
2023-03-06T23:53:42.870Z,98.21
2023-03-06T23:56:45.288Z,97.88
2023-03-06T23:59:47.599Z,98.01
